sensor_id;sensor_type;location;lat;lon;timestamp;temperature;humidity
56374;DHT22;58212;47.034;7.376;2022-10-31T00:00:16;12.10;99.90
56374;DHT22;58212;47.034;7.376;2022-10-31T00:02:45;12.10;99.90
56374;DHT22;58212;47.034;7.376;2022-10-31T00:05:14;12.10;99.90
56374;DHT22;58212;47.034;7.376;2022-10-31T00:07:41;12.20;99.90
56374;DHT22;58212;47.034;7.376;2022-10-31T00:10:09;12.10;99.90
56374;DHT22;58212;47.034;7.376;2022-10-31T00:12:36;12.10;99.90
56374;DHT22;58212;47.034;7.376;2022-10-31T00:15:03;12.10;99.90
56374;DHT22;58212;47.034;7.376;2022-10-31T00:17:34;12.20;99.90
56374;DHT22;58212;47.034;7.376;2022-10-31T00:20:02;12.20;99.90
56374;DHT22;58212;47.034;7.376;2022-10-31T00:22:31;12.20;99.90
56374;DHT22;58212;47.034;7.376;2022-10-31T00:24:58;12.20;99.90
56374;DHT22;58212;47.034;7.376;2022-10-31T00:27:25;12.20;99.90
56374;DHT22;58212;47.034;7.376;2022-10-31T00:29:54;12.20;99.90
56374;DHT22;58212;47.034;7.376;2022-10-31T00:32:21;12.30;99.90
56374;DHT22;58212;47.034;7.376;2022-10-31T00:34:48;12.30;99.90
56374;DHT22;58212;47.034;7.376;2022-10-31T00:37:15;12.20;99.90
56374;DHT22;58212;47.034;7.376;2022-10-31T00:39:45;12.20;99.90
56374;DHT22;58212;47.034;7.376;2022-10-31T00:42:14;12.30;99.90
56374;DHT22;58212;47.034;7.376;2022-10-31T00:44:43;12.30;99.90
56374;DHT22;58212;47.034;7.376;2022-10-31T00:47:10;12.30;99.90
56374;DHT22;58212;47.034;7.376;2022-10-31T00:49:37;12.30;99.90
56374;DHT22;58212;47.034;7.376;2022-10-31T00:52:04;12.30;99.90
56374;DHT22;58212;47.034;7.376;2022-10-31T00:54:31;12.30;99.90
56374;DHT22;58212;47.034;7.376;2022-10-31T00:57:00;12.30;99.90
56374;DHT22;58212;47.034;7.376;2022-10-31T00:59:27;12.30;99.90
56374;DHT22;58212;47.034;7.376;2022-10-31T01:01:54;12.30;99.90
56374;DHT22;58212;47.034;7.376;2022-10-31T01:04:21;12.30;99.90
56374;DHT22;58212;47.034;7.376;2022-10-31T01:06:48;12.40;99.90
56374;DHT22;58212;47.034;7.376;2022-10-31T01:09:16;12.40;99.90
56374;DHT22;58212;47.034;7.376;2022-10-31T01:11:43;12.40;99.90
56374;DHT22;58212;47.034;7.376;2022-10-31T01:14:13;12.40;99.90
56374;DHT22;58212;47.034;7.376;2022-10-31T01:16:40;12.40;99.90
56374;DHT22;58212;47.034;7.376;2022-10-31T01:19:07;12.40;99.90
56374;DHT22;58212;47.034;7.376;2022-10-31T01:21:34;12.40;99.90
56374;DHT22;58212;47.034;7.376;2022-10-31T01:24:01;12.40;99.90
56374;DHT22;58212;47.034;7.376;2022-10-31T01:26:30;12.30;99.90
56374;DHT22;58212;47.034;7.376;2022-10-31T01:28:59;12.20;99.90
56374;DHT22;58212;47.034;7.376;2022-10-31T01:31:31;12.20;99.90
56374;DHT22;58212;47.034;7.376;2022-10-31T01:33:58;12.20;99.90
56374;DHT22;58212;47.034;7.376;2022-10-31T01:36:29;12.20;99.90
56374;DHT22;58212;47.034;7.376;2022-10-31T01:38:58;12.20;99.90
56374;DHT22;58212;47.034;7.376;2022-10-31T01:41:29;12.20;99.90
56374;DHT22;58212;47.034;7.376;2022-10-31T01:43:59;12.20;99.90
56374;DHT22;58212;47.034;7.376;2022-10-31T01:46:32;12.20;99.90
56374;DHT22;58212;47.034;7.376;2022-10-31T01:49:04;12.20;99.90
56374;DHT22;58212;47.034;7.376;2022-10-31T01:51:34;12.20;99.90
56374;DHT22;58212;47.034;7.376;2022-10-31T01:54:06;12.20;99.90
56374;DHT22;58212;47.034;7.376;2022-10-31T01:56:36;12.20;99.90
56374;DHT22;58212;47.034;7.376;2022-10-31T01:59:07;12.20;99.90
56374;DHT22;58212;47.034;7.376;2022-10-31T02:01:37;12.30;99.90
56374;DHT22;58212;47.034;7.376;2022-10-31T02:04:05;12.20;99.90
56374;DHT22;58212;47.034;7.376;2022-10-31T02:06:37;12.30;99.90
56374;DHT22;58212;47.034;7.376;2022-10-31T02:09:07;12.30;99.90
56374;DHT22;58212;47.034;7.376;2022-10-31T02:11:35;12.20;99.90
56374;DHT22;58212;47.034;7.376;2022-10-31T02:14:03;12.20;99.90
56374;DHT22;58212;47.034;7.376;2022-10-31T02:16:31;12.20;99.90
56374;DHT22;58212;47.034;7.376;2022-10-31T02:18:59;12.20;99.90
56374;DHT22;58212;47.034;7.376;2022-10-31T02:21:32;12.20;99.90
56374;DHT22;58212;47.034;7.376;2022-10-31T02:24:21;12.20;99.90
56374;DHT22;58212;47.034;7.376;2022-10-31T02:26:57;12.20;99.90
56374;DHT22;58212;47.034;7.376;2022-10-31T02:30:04;12.20;99.90
56374;DHT22;58212;47.034;7.376;2022-10-31T02:32:50;12.20;99.90
56374;DHT22;58212;47.034;7.376;2022-10-31T02:35:32;12.20;99.90
56374;DHT22;58212;47.034;7.376;2022-10-31T02:38:08;12.10;99.90
56374;DHT22;58212;47.034;7.376;2022-10-31T02:40:47;12.10;99.90
56374;DHT22;58212;47.034;7.376;2022-10-31T02:43:43;12.00;99.90
56374;DHT22;58212;47.034;7.376;2022-10-31T02:46:17;12.10;99.90
56374;DHT22;58212;47.034;7.376;2022-10-31T02:48:48;12.00;99.90
56374;DHT22;58212;47.034;7.376;2022-10-31T02:51:18;12.00;99.90
56374;DHT22;58212;47.034;7.376;2022-10-31T02:53:47;12.00;99.90
56374;DHT22;58212;47.034;7.376;2022-10-31T02:56:16;12.00;99.90
56374;DHT22;58212;47.034;7.376;2022-10-31T02:58:47;12.00;99.90
56374;DHT22;58212;47.034;7.376;2022-10-31T03:01:33;11.90;99.90
56374;DHT22;58212;47.034;7.376;2022-10-31T03:07:11;11.90;99.90
56374;DHT22;58212;47.034;7.376;2022-10-31T03:09:45;11.90;99.90
56374;DHT22;58212;47.034;7.376;2022-10-31T03:12:18;11.90;99.90
56374;DHT22;58212;47.034;7.376;2022-10-31T03:14:53;11.90;99.90
56374;DHT22;58212;47.034;7.376;2022-10-31T03:17:27;11.90;99.90
56374;DHT22;58212;47.034;7.376;2022-10-31T03:19:59;11.90;99.90
56374;DHT22;58212;47.034;7.376;2022-10-31T03:22:30;11.90;99.90
56374;DHT22;58212;47.034;7.376;2022-10-31T03:25:01;11.70;99.90
56374;DHT22;58212;47.034;7.376;2022-10-31T03:27:34;11.60;99.90
56374;DHT22;58212;47.034;7.376;2022-10-31T03:30:04;11.40;99.90
56374;DHT22;58212;47.034;7.376;2022-10-31T03:32:47;11.20;99.90
56374;DHT22;58212;47.034;7.376;2022-10-31T03:35:18;11.30;99.90
56374;DHT22;58212;47.034;7.376;2022-10-31T03:37:49;11.40;99.90
56374;DHT22;58212;47.034;7.376;2022-10-31T03:40:19;11.40;99.90
56374;DHT22;58212;47.034;7.376;2022-10-31T03:42:51;11.40;99.90
56374;DHT22;58212;47.034;7.376;2022-10-31T03:45:23;11.40;99.90
56374;DHT22;58212;47.034;7.376;2022-10-31T03:47:52;11.50;99.90
56374;DHT22;58212;47.034;7.376;2022-10-31T03:50:25;11.50;99.90
56374;DHT22;58212;47.034;7.376;2022-10-31T03:52:56;11.40;99.90
56374;DHT22;58212;47.034;7.376;2022-10-31T03:55:28;11.20;99.90
56374;DHT22;58212;47.034;7.376;2022-10-31T03:57:59;11.20;99.90
56374;DHT22;58212;47.034;7.376;2022-10-31T04:00:27;11.20;99.90
56374;DHT22;58212;47.034;7.376;2022-10-31T04:02:58;11.20;99.90
56374;DHT22;58212;47.034;7.376;2022-10-31T04:05:31;11.20;99.90
56374;DHT22;58212;47.034;7.376;2022-10-31T04:08:02;11.20;99.90
56374;DHT22;58212;47.034;7.376;2022-10-31T04:10:34;11.20;99.90
56374;DHT22;58212;47.034;7.376;2022-10-31T04:13:07;11.10;99.90
56374;DHT22;58212;47.034;7.376;2022-10-31T04:15:45;11.20;99.90
56374;DHT22;58212;47.034;7.376;2022-10-31T04:18:13;11.20;99.90
56374;DHT22;58212;47.034;7.376;2022-10-31T04:20:41;11.20;99.90
56374;DHT22;58212;47.034;7.376;2022-10-31T04:23:16;11.20;99.90
56374;DHT22;58212;47.034;7.376;2022-10-31T04:25:45;11.10;99.90
56374;DHT22;58212;47.034;7.376;2022-10-31T04:28:12;11.20;99.90
56374;DHT22;58212;47.034;7.376;2022-10-31T04:30:39;11.40;99.90
56374;DHT22;58212;47.034;7.376;2022-10-31T04:33:07;11.50;99.90
56374;DHT22;58212;47.034;7.376;2022-10-31T04:35:34;11.50;99.90
56374;DHT22;58212;47.034;7.376;2022-10-31T04:38:06;11.40;99.90
56374;DHT22;58212;47.034;7.376;2022-10-31T04:40:33;11.30;99.90
56374;DHT22;58212;47.034;7.376;2022-10-31T04:43:16;11.40;99.90
56374;DHT22;58212;47.034;7.376;2022-10-31T04:45:44;11.50;99.90
56374;DHT22;58212;47.034;7.376;2022-10-31T04:48:13;11.50;99.90
56374;DHT22;58212;47.034;7.376;2022-10-31T04:50:43;11.50;99.90
56374;DHT22;58212;47.034;7.376;2022-10-31T04:53:13;11.50;99.90
56374;DHT22;58212;47.034;7.376;2022-10-31T04:56:01;11.40;99.90
56374;DHT22;58212;47.034;7.376;2022-10-31T04:58:37;11.40;99.90
56374;DHT22;58212;47.034;7.376;2022-10-31T05:01:07;11.30;99.90
56374;DHT22;58212;47.034;7.376;2022-10-31T05:03:34;11.30;99.90
56374;DHT22;58212;47.034;7.376;2022-10-31T05:06:01;11.40;99.90
56374;DHT22;58212;47.034;7.376;2022-10-31T05:08:30;11.40;99.90
56374;DHT22;58212;47.034;7.376;2022-10-31T05:10:59;11.50;99.90
56374;DHT22;58212;47.034;7.376;2022-10-31T05:13:27;11.50;99.90
56374;DHT22;58212;47.034;7.376;2022-10-31T05:16:12;11.50;99.90
56374;DHT22;58212;47.034;7.376;2022-10-31T05:18:59;11.40;99.90
56374;DHT22;58212;47.034;7.376;2022-10-31T05:21:45;11.40;99.90
56374;DHT22;58212;47.034;7.376;2022-10-31T05:24:13;11.40;99.90
56374;DHT22;58212;47.034;7.376;2022-10-31T05:26:46;11.40;99.90
56374;DHT22;58212;47.034;7.376;2022-10-31T05:29:13;11.40;99.90
56374;DHT22;58212;47.034;7.376;2022-10-31T05:31:40;11.40;99.90
56374;DHT22;58212;47.034;7.376;2022-10-31T05:34:17;11.50;99.90
56374;DHT22;58212;47.034;7.376;2022-10-31T05:36:44;11.50;99.90
56374;DHT22;58212;47.034;7.376;2022-10-31T05:39:16;11.50;99.90
56374;DHT22;58212;47.034;7.376;2022-10-31T05:41:47;11.50;99.90
56374;DHT22;58212;47.034;7.376;2022-10-31T05:44:24;11.40;99.90
56374;DHT22;58212;47.034;7.376;2022-10-31T05:47:06;11.40;99.90
56374;DHT22;58212;47.034;7.376;2022-10-31T05:49:33;11.40;99.90
56374;DHT22;58212;47.034;7.376;2022-10-31T05:52:29;11.40;99.90
56374;DHT22;58212;47.034;7.376;2022-10-31T05:55:06;11.40;99.90
56374;DHT22;58212;47.034;7.376;2022-10-31T05:57:33;11.30;99.90
56374;DHT22;58212;47.034;7.376;2022-10-31T06:00:00;11.40;99.90
56374;DHT22;58212;47.034;7.376;2022-10-31T06:02:34;11.30;99.90
56374;DHT22;58212;47.034;7.376;2022-10-31T06:05:24;11.30;99.90
56374;DHT22;58212;47.034;7.376;2022-10-31T06:07:54;11.20;99.90
56374;DHT22;58212;47.034;7.376;2022-10-31T06:10:24;11.30;99.90
56374;DHT22;58212;47.034;7.376;2022-10-31T06:12:54;11.30;99.90
56374;DHT22;58212;47.034;7.376;2022-10-31T06:15:29;11.50;99.90
56374;DHT22;58212;47.034;7.376;2022-10-31T06:17:58;11.60;99.90
56374;DHT22;58212;47.034;7.376;2022-10-31T06:20:27;11.60;99.90
56374;DHT22;58212;47.034;7.376;2022-10-31T06:23:02;11.60;99.90
56374;DHT22;58212;47.034;7.376;2022-10-31T06:25:32;11.60;99.90
56374;DHT22;58212;47.034;7.376;2022-10-31T06:27:59;11.60;99.90
56374;DHT22;58212;47.034;7.376;2022-10-31T06:30:41;11.60;99.90
56374;DHT22;58212;47.034;7.376;2022-10-31T06:33:08;11.60;99.90
56374;DHT22;58212;47.034;7.376;2022-10-31T06:35:45;11.60;99.90
56374;DHT22;58212;47.034;7.376;2022-10-31T06:38:12;11.60;99.90
56374;DHT22;58212;47.034;7.376;2022-10-31T06:40:43;11.60;99.90
56374;DHT22;58212;47.034;7.376;2022-10-31T06:43:21;11.50;99.90
56374;DHT22;58212;47.034;7.376;2022-10-31T06:45:52;11.40;99.90
56374;DHT22;58212;47.034;7.376;2022-10-31T06:48:31;11.30;99.90
56374;DHT22;58212;47.034;7.376;2022-10-31T06:51:27;11.20;99.90
56374;DHT22;58212;47.034;7.376;2022-10-31T06:53:54;11.30;99.90
56374;DHT22;58212;47.034;7.376;2022-10-31T06:56:26;11.20;99.90
56374;DHT22;58212;47.034;7.376;2022-10-31T06:58:55;11.30;99.90
56374;DHT22;58212;47.034;7.376;2022-10-31T07:01:48;11.60;99.90
56374;DHT22;58212;47.034;7.376;2022-10-31T07:04:16;11.70;99.90
56374;DHT22;58212;47.034;7.376;2022-10-31T07:06:44;11.70;99.90
56374;DHT22;58212;47.034;7.376;2022-10-31T07:09:11;11.80;99.90
56374;DHT22;58212;47.034;7.376;2022-10-31T07:11:39;12.00;99.90
56374;DHT22;58212;47.034;7.376;2022-10-31T07:14:06;12.00;99.90
56374;DHT22;58212;47.034;7.376;2022-10-31T07:16:36;11.80;99.90
56374;DHT22;58212;47.034;7.376;2022-10-31T07:19:04;11.80;99.90
56374;DHT22;58212;47.034;7.376;2022-10-31T07:21:33;11.80;99.90
56374;DHT22;58212;47.034;7.376;2022-10-31T07:24:00;12.00;99.90
56374;DHT22;58212;47.034;7.376;2022-10-31T07:26:48;12.10;99.90
56374;DHT22;58212;47.034;7.376;2022-10-31T07:29:15;12.20;99.90
56374;DHT22;58212;47.034;7.376;2022-10-31T07:31:45;12.10;99.90
56374;DHT22;58212;47.034;7.376;2022-10-31T07:34:19;12.00;99.90
56374;DHT22;58212;47.034;7.376;2022-10-31T07:36:55;12.20;99.90
56374;DHT22;58212;47.034;7.376;2022-10-31T07:39:22;12.30;99.90
56374;DHT22;58212;47.034;7.376;2022-10-31T07:41:50;12.40;99.90
56374;DHT22;58212;47.034;7.376;2022-10-31T07:44:18;12.40;99.90
56374;DHT22;58212;47.034;7.376;2022-10-31T07:47:09;12.40;99.90
56374;DHT22;58212;47.034;7.376;2022-10-31T07:50:06;12.20;99.90
56374;DHT22;58212;47.034;7.376;2022-10-31T07:53:09;12.00;99.90
56374;DHT22;58212;47.034;7.376;2022-10-31T07:55:37;11.90;99.90
56374;DHT22;58212;47.034;7.376;2022-10-31T07:58:08;11.80;99.90
56374;DHT22;58212;47.034;7.376;2022-10-31T08:00:39;11.60;99.90
56374;DHT22;58212;47.034;7.376;2022-10-31T08:03:09;11.70;99.90
56374;DHT22;58212;47.034;7.376;2022-10-31T08:05:57;11.60;99.90
56374;DHT22;58212;47.034;7.376;2022-10-31T08:08:44;11.80;99.90
56374;DHT22;58212;47.034;7.376;2022-10-31T08:11:11;11.90;99.90
56374;DHT22;58212;47.034;7.376;2022-10-31T08:13:40;11.70;99.90
56374;DHT22;58212;47.034;7.376;2022-10-31T08:16:09;11.90;99.90
56374;DHT22;58212;47.034;7.376;2022-10-31T08:18:44;12.10;99.90
56374;DHT22;58212;47.034;7.376;2022-10-31T08:21:14;12.20;99.90
56374;DHT22;58212;47.034;7.376;2022-10-31T08:23:44;12.20;99.90
56374;DHT22;58212;47.034;7.376;2022-10-31T08:26:13;12.10;99.90
56374;DHT22;58212;47.034;7.376;2022-10-31T08:28:41;12.10;99.90
56374;DHT22;58212;47.034;7.376;2022-10-31T08:31:09;12.20;99.90
56374;DHT22;58212;47.034;7.376;2022-10-31T08:33:39;12.30;99.90
56374;DHT22;58212;47.034;7.376;2022-10-31T08:36:18;12.40;99.90
56374;DHT22;58212;47.034;7.376;2022-10-31T08:39:05;12.30;99.90
56374;DHT22;58212;47.034;7.376;2022-10-31T08:41:33;12.40;99.90
56374;DHT22;58212;47.034;7.376;2022-10-31T08:44:02;12.30;99.90
56374;DHT22;58212;47.034;7.376;2022-10-31T08:46:29;12.30;99.90
56374;DHT22;58212;47.034;7.376;2022-10-31T08:48:57;12.30;99.90
56374;DHT22;58212;47.034;7.376;2022-10-31T08:51:25;12.30;99.90
56374;DHT22;58212;47.034;7.376;2022-10-31T08:53:54;12.20;99.90
56374;DHT22;58212;47.034;7.376;2022-10-31T08:56:47;12.30;99.90
56374;DHT22;58212;47.034;7.376;2022-10-31T08:59:30;12.30;99.90
56374;DHT22;58212;47.034;7.376;2022-10-31T09:02:17;12.30;99.90
56374;DHT22;58212;47.034;7.376;2022-10-31T09:04:44;12.30;99.90
56374;DHT22;58212;47.034;7.376;2022-10-31T09:07:12;12.30;99.90
56374;DHT22;58212;47.034;7.376;2022-10-31T09:09:39;12.40;99.90
56374;DHT22;58212;47.034;7.376;2022-10-31T09:12:06;12.60;99.90
56374;DHT22;58212;47.034;7.376;2022-10-31T09:14:53;12.80;99.90
56374;DHT22;58212;47.034;7.376;2022-10-31T09:17:31;13.10;99.90
56374;DHT22;58212;47.034;7.376;2022-10-31T09:20:17;12.90;99.90
56374;DHT22;58212;47.034;7.376;2022-10-31T09:22:45;12.80;99.90
56374;DHT22;58212;47.034;7.376;2022-10-31T09:25:12;12.90;99.90
56374;DHT22;58212;47.034;7.376;2022-10-31T09:27:42;12.70;99.90
56374;DHT22;58212;47.034;7.376;2022-10-31T09:30:12;12.80;99.90
56374;DHT22;58212;47.034;7.376;2022-10-31T09:32:39;12.80;99.90
56374;DHT22;58212;47.034;7.376;2022-10-31T09:35:08;13.00;99.90
56374;DHT22;58212;47.034;7.376;2022-10-31T09:37:35;13.70;99.90
56374;DHT22;58212;47.034;7.376;2022-10-31T09:40:03;13.70;99.90
56374;DHT22;58212;47.034;7.376;2022-10-31T09:42:52;13.70;99.90
56374;DHT22;58212;47.034;7.376;2022-10-31T09:45:31;13.70;99.90
56374;DHT22;58212;47.034;7.376;2022-10-31T09:48:25;13.90;99.90
56374;DHT22;58212;47.034;7.376;2022-10-31T09:51:00;14.00;99.90
56374;DHT22;58212;47.034;7.376;2022-10-31T09:53:51;14.30;99.90
56374;DHT22;58212;47.034;7.376;2022-10-31T09:56:23;14.50;99.90
56374;DHT22;58212;47.034;7.376;2022-10-31T09:58:57;14.50;99.90
56374;DHT22;58212;47.034;7.376;2022-10-31T10:01:34;14.60;99.90
56374;DHT22;58212;47.034;7.376;2022-10-31T10:04:09;14.60;99.90
56374;DHT22;58212;47.034;7.376;2022-10-31T10:06:58;14.70;99.90
56374;DHT22;58212;47.034;7.376;2022-10-31T10:09:49;14.50;99.90
56374;DHT22;58212;47.034;7.376;2022-10-31T10:12:45;14.30;99.90
56374;DHT22;58212;47.034;7.376;2022-10-31T10:15:43;14.20;99.90
56374;DHT22;58212;47.034;7.376;2022-10-31T10:18:26;14.30;99.90
56374;DHT22;58212;47.034;7.376;2022-10-31T10:21:02;14.50;99.90
56374;DHT22;58212;47.034;7.376;2022-10-31T10:23:40;14.80;99.90
56374;DHT22;58212;47.034;7.376;2022-10-31T10:26:15;15.10;99.90
56374;DHT22;58212;47.034;7.376;2022-10-31T10:28:47;15.30;99.90
56374;DHT22;58212;47.034;7.376;2022-10-31T10:31:18;15.10;99.90
56374;DHT22;58212;47.034;7.376;2022-10-31T10:34:10;15.10;99.90
56374;DHT22;58212;47.034;7.376;2022-10-31T10:36:40;15.30;99.90
56374;DHT22;58212;47.034;7.376;2022-10-31T10:39:14;15.70;99.90
56374;DHT22;58212;47.034;7.376;2022-10-31T10:41:45;16.70;99.90
56374;DHT22;58212;47.034;7.376;2022-10-31T10:44:28;16.30;99.90
56374;DHT22;58212;47.034;7.376;2022-10-31T10:47:12;16.20;99.90
56374;DHT22;58212;47.034;7.376;2022-10-31T10:49:59;16.10;99.90
56374;DHT22;58212;47.034;7.376;2022-10-31T10:52:34;16.20;99.90
56374;DHT22;58212;47.034;7.376;2022-10-31T10:55:11;16.30;99.90
56374;DHT22;58212;47.034;7.376;2022-10-31T10:57:50;16.20;99.90
56374;DHT22;58212;47.034;7.376;2022-10-31T11:00:21;16.30;99.90
56374;DHT22;58212;47.034;7.376;2022-10-31T11:02:49;16.30;99.90
56374;DHT22;58212;47.034;7.376;2022-10-31T11:05:25;16.30;99.90
56374;DHT22;58212;47.034;7.376;2022-10-31T11:07:53;16.20;99.90
56374;DHT22;58212;47.034;7.376;2022-10-31T11:10:20;16.30;99.90
56374;DHT22;58212;47.034;7.376;2022-10-31T11:13:00;16.30;99.90
56374;DHT22;58212;47.034;7.376;2022-10-31T11:15:30;16.30;99.90
56374;DHT22;58212;47.034;7.376;2022-10-31T11:17:58;16.50;99.90
56374;DHT22;58212;47.034;7.376;2022-10-31T11:20:30;16.70;99.90
56374;DHT22;58212;47.034;7.376;2022-10-31T11:23:03;16.70;99.90
56374;DHT22;58212;47.034;7.376;2022-10-31T11:25:31;16.90;99.90
56374;DHT22;58212;47.034;7.376;2022-10-31T11:27:59;17.00;99.90
56374;DHT22;58212;47.034;7.376;2022-10-31T11:30:27;17.00;99.90
56374;DHT22;58212;47.034;7.376;2022-10-31T11:32:55;17.00;99.90
56374;DHT22;58212;47.034;7.376;2022-10-31T11:35:24;17.10;99.90
56374;DHT22;58212;47.034;7.376;2022-10-31T11:37:55;17.20;99.90
56374;DHT22;58212;47.034;7.376;2022-10-31T11:40:27;17.20;99.90
56374;DHT22;58212;47.034;7.376;2022-10-31T11:42:56;17.20;99.90
56374;DHT22;58212;47.034;7.376;2022-10-31T11:45:31;17.20;99.90
56374;DHT22;58212;47.034;7.376;2022-10-31T11:48:00;17.30;99.90
56374;DHT22;58212;47.034;7.376;2022-10-31T11:50:32;17.40;99.90
56374;DHT22;58212;47.034;7.376;2022-10-31T11:53:02;17.60;99.90
56374;DHT22;58212;47.034;7.376;2022-10-31T11:55:32;17.50;99.90
56374;DHT22;58212;47.034;7.376;2022-10-31T11:58:00;17.50;99.90
56374;DHT22;58212;47.034;7.376;2022-10-31T12:00:28;17.60;99.90
56374;DHT22;58212;47.034;7.376;2022-10-31T12:03:11;17.50;99.90
56374;DHT22;58212;47.034;7.376;2022-10-31T12:05:40;17.40;99.90
56374;DHT22;58212;47.034;7.376;2022-10-31T12:08:13;17.30;99.90
56374;DHT22;58212;47.034;7.376;2022-10-31T12:10:51;17.50;99.90
56374;DHT22;58212;47.034;7.376;2022-10-31T12:13:32;17.70;99.90
56374;DHT22;58212;47.034;7.376;2022-10-31T12:16:08;17.80;99.90
56374;DHT22;58212;47.034;7.376;2022-10-31T12:18:53;17.60;99.90
56374;DHT22;58212;47.034;7.376;2022-10-31T12:21:49;17.60;99.90
56374;DHT22;58212;47.034;7.376;2022-10-31T12:24:33;17.60;99.90
56374;DHT22;58212;47.034;7.376;2022-10-31T12:27:15;17.70;99.90
56374;DHT22;58212;47.034;7.376;2022-10-31T12:30:02;17.80;99.90
56374;DHT22;58212;47.034;7.376;2022-10-31T12:32:41;18.00;99.90
56374;DHT22;58212;47.034;7.376;2022-10-31T12:35:26;18.10;99.90
56374;DHT22;58212;47.034;7.376;2022-10-31T12:38:22;18.10;99.90
56374;DHT22;58212;47.034;7.376;2022-10-31T12:41:07;18.10;99.90
56374;DHT22;58212;47.034;7.376;2022-10-31T12:43:45;18.20;99.90
56374;DHT22;58212;47.034;7.376;2022-10-31T12:46:23;18.20;99.90
56374;DHT22;58212;47.034;7.376;2022-10-31T12:49:20;18.20;99.90
56374;DHT22;58212;47.034;7.376;2022-10-31T12:51:57;18.20;99.90
56374;DHT22;58212;47.034;7.376;2022-10-31T12:54:41;18.30;99.90
56374;DHT22;58212;47.034;7.376;2022-10-31T12:57:22;18.30;99.90
56374;DHT22;58212;47.034;7.376;2022-10-31T12:59:54;18.30;99.90
56374;DHT22;58212;47.034;7.376;2022-10-31T13:02:27;18.20;99.90
56374;DHT22;58212;47.034;7.376;2022-10-31T13:04:58;18.30;99.90
56374;DHT22;58212;47.034;7.376;2022-10-31T13:07:31;18.40;99.90
56374;DHT22;58212;47.034;7.376;2022-10-31T13:10:05;18.40;99.90
56374;DHT22;58212;47.034;7.376;2022-10-31T13:12:36;18.30;99.90
56374;DHT22;58212;47.034;7.376;2022-10-31T13:15:11;18.40;99.90
56374;DHT22;58212;47.034;7.376;2022-10-31T13:17:43;18.40;99.90
56374;DHT22;58212;47.034;7.376;2022-10-31T13:20:20;18.30;99.90
56374;DHT22;58212;47.034;7.376;2022-10-31T13:22:50;18.30;99.90
56374;DHT22;58212;47.034;7.376;2022-10-31T13:25:21;18.20;99.90
56374;DHT22;58212;47.034;7.376;2022-10-31T13:27:55;18.10;99.90
56374;DHT22;58212;47.034;7.376;2022-10-31T13:30:26;18.10;99.90
56374;DHT22;58212;47.034;7.376;2022-10-31T13:33:01;18.20;99.90
56374;DHT22;58212;47.034;7.376;2022-10-31T13:35:38;18.10;99.90
56374;DHT22;58212;47.034;7.376;2022-10-31T13:38:23;18.10;99.90
56374;DHT22;58212;47.034;7.376;2022-10-31T13:40:56;18.00;99.90
56374;DHT22;58212;47.034;7.376;2022-10-31T13:43:33;18.00;99.90
56374;DHT22;58212;47.034;7.376;2022-10-31T13:46:21;17.80;99.90
56374;DHT22;58212;47.034;7.376;2022-10-31T13:48:50;17.70;99.90
56374;DHT22;58212;47.034;7.376;2022-10-31T13:51:24;17.70;99.90
56374;DHT22;58212;47.034;7.376;2022-10-31T13:53:59;17.70;99.90
56374;DHT22;58212;47.034;7.376;2022-10-31T13:56:28;17.70;99.90
56374;DHT22;58212;47.034;7.376;2022-10-31T13:59:18;17.60;99.90
56374;DHT22;58212;47.034;7.376;2022-10-31T14:01:48;17.50;99.90
56374;DHT22;58212;47.034;7.376;2022-10-31T14:04:18;17.40;99.90
56374;DHT22;58212;47.034;7.376;2022-10-31T14:06:55;17.30;99.90
56374;DHT22;58212;47.034;7.376;2022-10-31T14:09:28;17.20;99.90
56374;DHT22;58212;47.034;7.376;2022-10-31T14:11:58;17.10;99.90
56374;DHT22;58212;47.034;7.376;2022-10-31T14:14:33;17.00;99.90
56374;DHT22;58212;47.034;7.376;2022-10-31T14:17:01;16.90;99.90
56374;DHT22;58212;47.034;7.376;2022-10-31T14:19:28;16.90;99.90
56374;DHT22;58212;47.034;7.376;2022-10-31T14:21:56;16.80;99.90
56374;DHT22;58212;47.034;7.376;2022-10-31T14:24:33;16.70;99.90
56374;DHT22;58212;47.034;7.376;2022-10-31T14:27:03;16.60;99.90
56374;DHT22;58212;47.034;7.376;2022-10-31T14:29:34;16.60;99.90
56374;DHT22;58212;47.034;7.376;2022-10-31T14:32:06;16.50;99.90
56374;DHT22;58212;47.034;7.376;2022-10-31T14:34:42;16.40;99.90
56374;DHT22;58212;47.034;7.376;2022-10-31T14:37:28;16.40;99.90
56374;DHT22;58212;47.034;7.376;2022-10-31T14:40:20;16.40;99.90
56374;DHT22;58212;47.034;7.376;2022-10-31T14:45:49;16.30;99.90
56374;DHT22;58212;47.034;7.376;2022-10-31T14:48:41;16.20;99.90
56374;DHT22;58212;47.034;7.376;2022-10-31T14:51:17;16.00;99.90
56374;DHT22;58212;47.034;7.376;2022-10-31T14:53:48;16.00;99.90
56374;DHT22;58212;47.034;7.376;2022-10-31T14:56:20;16.00;99.90
56374;DHT22;58212;47.034;7.376;2022-10-31T14:58:48;15.90;99.90
56374;DHT22;58212;47.034;7.376;2022-10-31T15:01:23;15.90;99.90
56374;DHT22;58212;47.034;7.376;2022-10-31T15:03:57;15.80;99.90
56374;DHT22;58212;47.034;7.376;2022-10-31T15:06:25;15.70;99.90
56374;DHT22;58212;47.034;7.376;2022-10-31T15:08:54;15.70;99.90
56374;DHT22;58212;47.034;7.376;2022-10-31T15:11:22;15.70;99.90
56374;DHT22;58212;47.034;7.376;2022-10-31T15:13:52;15.70;99.90
56374;DHT22;58212;47.034;7.376;2022-10-31T15:16:24;15.60;99.90
56374;DHT22;58212;47.034;7.376;2022-10-31T15:18:53;15.60;99.90
56374;DHT22;58212;47.034;7.376;2022-10-31T15:21:23;15.60;99.90
56374;DHT22;58212;47.034;7.376;2022-10-31T15:23:52;15.50;99.90
56374;DHT22;58212;47.034;7.376;2022-10-31T15:26:22;15.50;99.90
56374;DHT22;58212;47.034;7.376;2022-10-31T15:28:59;15.50;99.90
56374;DHT22;58212;47.034;7.376;2022-10-31T15:31:29;15.50;99.90
56374;DHT22;58212;47.034;7.376;2022-10-31T15:34:03;15.60;99.90
56374;DHT22;58212;47.034;7.376;2022-10-31T15:36:31;15.50;99.90
56374;DHT22;58212;47.034;7.376;2022-10-31T15:39:00;15.40;99.90
56374;DHT22;58212;47.034;7.376;2022-10-31T15:41:31;15.50;99.90
56374;DHT22;58212;47.034;7.376;2022-10-31T15:44:03;15.40;99.90
56374;DHT22;58212;47.034;7.376;2022-10-31T15:46:33;15.30;99.90
56374;DHT22;58212;47.034;7.376;2022-10-31T15:49:03;15.30;99.90
56374;DHT22;58212;47.034;7.376;2022-10-31T15:51:32;15.40;99.90
56374;DHT22;58212;47.034;7.376;2022-10-31T15:54:00;15.30;99.90
56374;DHT22;58212;47.034;7.376;2022-10-31T15:56:29;15.30;99.90
56374;DHT22;58212;47.034;7.376;2022-10-31T15:58:58;15.30;99.90
56374;DHT22;58212;47.034;7.376;2022-10-31T16:01:28;15.20;99.90
56374;DHT22;58212;47.034;7.376;2022-10-31T16:04:03;15.20;99.90
56374;DHT22;58212;47.034;7.376;2022-10-31T16:06:34;15.30;99.90
56374;DHT22;58212;47.034;7.376;2022-10-31T16:09:02;15.30;99.90
56374;DHT22;58212;47.034;7.376;2022-10-31T16:11:35;15.20;99.90
56374;DHT22;58212;47.034;7.376;2022-10-31T16:14:06;15.10;99.90